• Join FlightAware (Why Join?)
  • Login
  • US Flag 
06:16AM EDT


 

Airport Tracker/Info


-or-


 

Live Flight TrackerFlight Track Log ✈ DAL6116 ✈ 18-Jun-2013 ✈ KJFK - CYQB

Flight Track Log - Related Links

Times and Time Zones

All times are in EDT time to prevent confusion due to time zone crossing. See the DAL6116 flight status page for this flight to view local times or setup timezone preferences in your user account.

Time Position Orientation Groundspeed Altitude Reporting Facility
EDT Latitude Longitude Course Direction KTS MPH feet Rate Location/Type
10:48PM 40.6500 -73.7500 72° East 161 185 1,600  Level New York TRACON
10:49PM 40.6667 -73.6833 72° East 201 231 3,400 1,860 Climbing New York TRACON
10:50PM 40.7000 -73.6167 57° Northeast 248 285 5,400 2,100 Climbing New York TRACON
10:51PM 40.7500 -73.5500 45° Northeast 270 311 7,700 2,220 Climbing New York TRACON
10:52PM 40.8167 -73.5667 349° North 271 312 9,900 1,860 Climbing New York TRACON
10:54PM 41.0064 -73.6144 349° North 299 344 14,000 1,800 Climbing Boston Center
10:55PM 41.0997 -73.6411 348° North 305 351 16,000 1,500 Climbing Boston Center
10:56PM 41.1750 -73.6147 15° North 298 343 17,000 960 Climbing Boston Center
10:57PM 41.2572 -73.5253 39° Northeast 310 357 18,000 1,020 Climbing Boston Center
10:58PM 41.3433 -73.4464 35° Northeast 352 405 19,100 1,020 Climbing Boston Center
10:59PM 41.4339 -73.3650 34° Northeast 372 428 20,300 1,200 Climbing Boston Center
11:00PM 41.5369 -73.2417 42° Northeast 392 451 21,800 1,200 Climbing Boston Center
11:01PM 41.6083 -73.1508 44° Northeast 392 451 22,800 1,140 Climbing Boston Center
11:02PM 41.7106 -73.1186 13° North 392 451 24,100 1,200 Climbing Boston Center
11:03PM 41.8189 -73.1392 352° North 364 419 25,200 1,140 Climbing Boston Center
11:04PM 41.9272 -73.1600 20° North 381 438 26,400 1,080 Climbing Boston Center
11:05PM 42.0353 -73.1781 353° North 386 444 27,400 960 Climbing Boston Center
11:06PM 42.1456 -73.1989 352° North 391 450 28,400 960 Climbing Boston Center
11:07PM 42.2561 -73.2169 353° North 391 450 29,400 960 Climbing Boston Center
11:08PM 42.3831 -73.2328 355° North 401 461 30,400 960 Climbing Boston Center
11:09PM 42.4997 -73.2539 352° North 407 468 31,400 900 Climbing Boston Center
11:10PM 42.6036 -73.2750 351° North 412 474 32,300 780 Climbing Boston Center
11:11PM 42.7269 -73.2286 15° North 424 488 33,000 300 Climbing Boston Center
11:12PM 42.8567 -73.1736 17° North 449 517 33,000  Level Boston Center
11:13PM 42.9922 -73.1156 17° North 477 549 33,000  Level Boston Center
11:14PM 43.1386 -73.0547 17° North 492 566 33,000  Level Boston Center
11:15PM 43.2764 -72.9961 17° North 504 580 33,000  Level Boston Center
11:16PM 43.4122 -72.9344 18° North 504 580 33,000  Level Boston Center
11:17PM 43.5478 -72.8783 17° North 504 580 33,000  Level Boston Center
11:18PM 43.6814 -72.8192 18° North 504 580 33,000  Level Boston Center
11:19PM 43.8169 -72.7567 18° North 499 574 33,000 -180 Level Boston Center
11:20PM 43.9528 -72.6967 18° North 505 581 32,700 -600 Descending Boston Center
11:21PM 44.0925 -72.6339 18° North 512 589 31,800 -900 Descending Boston Center
11:22PM 44.2300 -72.5706 18° North 517 595 31,000 -420 Descending Boston Center
11:23PM 44.3656 -72.5097 18° North 517 595 31,000  Level Boston Center
11:24PM 44.5008 -72.4489 18° North 507 583 31,000  Level Boston Center
11:25PM 44.6364 -72.3906 17° North 507 583 31,000  Level Boston Center
11:26PM 44.7717 -72.3289 18° North 507 583 31,000  Level Boston Center
11:27PM 44.9069 -72.2672 18° North 507 583 31,000  Level Boston Center
11:28PM 45.0422 -72.2050 18° North 507 583 31,000 -300 Level Boston Center
11:30PM 45.2000 -72.1167 22° Northeast 510 587 30,400 -1,080 Descending Montreal Center
11:31PM 45.3333 -72.0333 24° Northeast 480 552 28,500 -2,100 Descending Montreal Center
11:32PM 45.4500 -71.9833 17° North 460 529 26,200 -2,400 Descending Montreal Center
11:33PM 45.5667 -71.9500 11° North 450 518 23,800 -2,520 Descending Montreal Center
11:34PM 45.7000 -71.8833 19° North 440 506 21,200 -2,520 Descending Montreal Center
11:35PM 45.8000 -71.8333 19° North 430 495 18,800 -2,340 Descending Montreal Center
11:36PM 45.9167 -71.7667 22° Northeast 410 472 16,600 -2,220 Descending Montreal Center
11:37PM 46.0167 -71.7167 19° North 390 449 14,400 -2,400 Descending Montreal Center
11:38PM 46.1167 -71.6833 13° North 370 426 11,900 -2,100 Descending Montreal Center
11:39PM 46.2167 -71.6833 360° North 330 380 10,300 -1,080 Descending Montreal Center
11:40PM 46.2833 -71.6500 19° North 300 345 9,800 -960 Descending Montreal Center
11:41PM 46.3667 -71.6333 North 280 322 8,400 -1,560 Descending Montreal Center
11:42PM 46.4333 -71.6333 360° North 270 311 6,700 -1,560 Descending Montreal Center
11:43PM 46.5167 -71.6000 15° North 250 288 5,300 -1,260 Descending Montreal Center
11:44PM 46.5667 -71.6000 360° North 220 253 4,200 -1,020 Descending Montreal Center
11:45PM 46.6333 -71.5667 19° North 210 242 3,300 -900 Descending Montreal Center